sensor_id;sensor_type;location;lat;lon;timestamp;P1;durP1;ratioP1;P2;durP2;ratioP2
19747;SDS011;10032;51.386;12.516;2023-07-20T00:02:05;4.38;;;3.17;;
19747;SDS011;10032;51.386;12.516;2023-07-20T00:04:32;4.20;;;2.97;;
19747;SDS011;10032;51.386;12.516;2023-07-20T00:06:58;3.75;;;3.30;;
19747;SDS011;10032;51.386;12.516;2023-07-20T00:09:25;4.70;;;4.30;;
19747;SDS011;10032;51.386;12.516;2023-07-20T00:11:53;3.40;;;3.10;;
19747;SDS011;10032;51.386;12.516;2023-07-20T00:14:18;6.25;;;4.13;;
19747;SDS011;10032;51.386;12.516;2023-07-20T00:16:47;4.85;;;3.90;;
19747;SDS011;10032;51.386;12.516;2023-07-20T00:19:24;4.45;;;4.05;;
19747;SDS011;10032;51.386;12.516;2023-07-20T00:21:50;5.57;;;4.07;;
19747;SDS011;10032;51.386;12.516;2023-07-20T00:24:15;6.38;;;3.55;;
19747;SDS011;10032;51.386;12.516;2023-07-20T00:26:41;3.40;;;3.10;;
19747;SDS011;10032;51.386;12.516;2023-07-20T00:29:06;3.90;;;3.53;;
19747;SDS011;10032;51.386;12.516;2023-07-20T00:31:31;4.22;;;3.83;;
19747;SDS011;10032;51.386;12.516;2023-07-20T00:33:57;5.13;;;3.25;;
19747;SDS011;10032;51.386;12.516;2023-07-20T00:36:22;5.40;;;4.40;;
19747;SDS011;10032;51.386;12.516;2023-07-20T00:38:47;6.15;;;4.25;;
19747;SDS011;10032;51.386;12.516;2023-07-20T00:41:13;4.47;;;4.07;;
19747;SDS011;10032;51.386;12.516;2023-07-20T00:43:39;3.10;;;2.90;;
19747;SDS011;10032;51.386;12.516;2023-07-20T00:46:04;6.22;;;3.80;;
19747;SDS011;10032;51.386;12.516;2023-07-20T00:48:30;3.20;;;2.90;;
19747;SDS011;10032;51.386;12.516;2023-07-20T00:50:58;4.28;;;3.47;;
19747;SDS011;10032;51.386;12.516;2023-07-20T00:53:25;2.72;;;2.47;;
19747;SDS011;10032;51.386;12.516;2023-07-20T00:55:51;3.58;;;3.28;;
19747;SDS011;10032;51.386;12.516;2023-07-20T00:58:16;3.67;;;3.38;;
19747;SDS011;10032;51.386;12.516;2023-07-20T01:00:42;4.68;;;3.55;;
19747;SDS011;10032;51.386;12.516;2023-07-20T01:03:07;3.13;;;2.65;;
19747;SDS011;10032;51.386;12.516;2023-07-20T01:05:38;3.90;;;3.58;;
19747;SDS011;10032;51.386;12.516;2023-07-20T01:08:11;3.22;;;2.47;;
19747;SDS011;10032;51.386;12.516;2023-07-20T01:10:46;3.40;;;2.88;;
19747;SDS011;10032;51.386;12.516;2023-07-20T01:13:21;3.78;;;3.45;;
19747;SDS011;10032;51.386;12.516;2023-07-20T01:15:50;3.80;;;3.28;;
19747;SDS011;10032;51.386;12.516;2023-07-20T01:18:22;3.28;;;2.88;;
19747;SDS011;10032;51.386;12.516;2023-07-20T01:20:47;3.85;;;3.38;;
19747;SDS011;10032;51.386;12.516;2023-07-20T01:29:11;3.17;;;2.92;;
19747;SDS011;10032;51.386;12.516;2023-07-20T01:31:38;4.60;;;2.95;;
19747;SDS011;10032;51.386;12.516;2023-07-20T01:34:06;2.40;;;2.25;;
19747;SDS011;10032;51.386;12.516;2023-07-20T01:36:36;4.05;;;2.90;;
19747;SDS011;10032;51.386;12.516;2023-07-20T01:39:02;2.78;;;2.50;;
19747;SDS011;10032;51.386;12.516;2023-07-20T01:41:30;2.55;;;2.35;;
19747;SDS011;10032;51.386;12.516;2023-07-20T01:43:58;2.83;;;2.50;;
19747;SDS011;10032;51.386;12.516;2023-07-20T01:46:24;3.17;;;2.88;;
19747;SDS011;10032;51.386;12.516;2023-07-20T01:48:50;2.88;;;2.65;;
19747;SDS011;10032;51.386;12.516;2023-07-20T01:51:15;3.33;;;2.85;;
19747;SDS011;10032;51.386;12.516;2023-07-20T01:53:42;3.35;;;3.05;;
19747;SDS011;10032;51.386;12.516;2023-07-20T01:56:08;3.10;;;2.58;;
19747;SDS011;10032;51.386;12.516;2023-07-20T01:58:34;2.45;;;2.25;;
19747;SDS011;10032;51.386;12.516;2023-07-20T02:01:00;3.47;;;3.13;;
19747;SDS011;10032;51.386;12.516;2023-07-20T02:03:26;3.42;;;2.63;;
19747;SDS011;10032;51.386;12.516;2023-07-20T02:05:51;2.60;;;2.40;;
19747;SDS011;10032;51.386;12.516;2023-07-20T02:08:17;3.53;;;2.88;;
19747;SDS011;10032;51.386;12.516;2023-07-20T02:10:45;2.72;;;2.53;;
19747;SDS011;10032;51.386;12.516;2023-07-20T02:13:11;4.00;;;2.85;;
19747;SDS011;10032;51.386;12.516;2023-07-20T02:15:37;3.78;;;3.00;;
19747;SDS011;10032;51.386;12.516;2023-07-20T02:18:02;2.90;;;2.70;;
19747;SDS011;10032;51.386;12.516;2023-07-20T02:20:28;3.10;;;2.70;;
19747;SDS011;10032;51.386;12.516;2023-07-20T02:22:53;2.88;;;2.67;;
19747;SDS011;10032;51.386;12.516;2023-07-20T02:25:19;3.08;;;2.78;;
19747;SDS011;10032;51.386;12.516;2023-07-20T02:27:45;3.05;;;2.78;;
19747;SDS011;10032;51.386;12.516;2023-07-20T02:30:10;3.25;;;2.95;;
19747;SDS011;10032;51.386;12.516;2023-07-20T02:32:36;2.83;;;2.63;;
19747;SDS011;10032;51.386;12.516;2023-07-20T02:35:01;2.88;;;2.28;;
19747;SDS011;10032;51.386;12.516;2023-07-20T02:37:28;2.70;;;2.47;;
19747;SDS011;10032;51.386;12.516;2023-07-20T02:39:54;2.83;;;2.53;;
19747;SDS011;10032;51.386;12.516;2023-07-20T02:42:20;3.88;;;3.38;;
19747;SDS011;10032;51.386;12.516;2023-07-20T02:44:47;3.10;;;2.80;;
19747;SDS011;10032;51.386;12.516;2023-07-20T02:47:13;5.45;;;3.75;;
19747;SDS011;10032;51.386;12.516;2023-07-20T02:49:39;3.17;;;2.90;;
19747;SDS011;10032;51.386;12.516;2023-07-20T02:52:04;3.78;;;3.45;;
19747;SDS011;10032;51.386;12.516;2023-07-20T02:54:30;3.90;;;3.50;;
19747;SDS011;10032;51.386;12.516;2023-07-20T02:56:55;3.80;;;3.42;;
19747;SDS011;10032;51.386;12.516;2023-07-20T02:59:21;3.72;;;2.83;;
19747;SDS011;10032;51.386;12.516;2023-07-20T03:01:47;3.28;;;2.95;;
19747;SDS011;10032;51.386;12.516;2023-07-20T03:04:12;3.28;;;2.60;;
19747;SDS011;10032;51.386;12.516;2023-07-20T03:06:38;3.97;;;2.90;;
19747;SDS011;10032;51.386;12.516;2023-07-20T03:09:04;2.25;;;2.15;;
19747;SDS011;10032;51.386;12.516;2023-07-20T03:11:29;3.10;;;2.90;;
19747;SDS011;10032;51.386;12.516;2023-07-20T03:13:55;5.22;;;2.80;;
19747;SDS011;10032;51.386;12.516;2023-07-20T03:16:21;3.10;;;2.78;;
19747;SDS011;10032;51.386;12.516;2023-07-20T03:18:46;4.22;;;3.58;;
19747;SDS011;10032;51.386;12.516;2023-07-20T03:21:12;2.63;;;2.42;;
19747;SDS011;10032;51.386;12.516;2023-07-20T03:23:38;2.60;;;2.40;;
19747;SDS011;10032;51.386;12.516;2023-07-20T03:26:04;2.97;;;2.72;;
19747;SDS011;10032;51.386;12.516;2023-07-20T03:28:29;3.88;;;3.45;;
19747;SDS011;10032;51.386;12.516;2023-07-20T03:30:58;7.18;;;4.25;;
19747;SDS011;10032;51.386;12.516;2023-07-20T03:33:27;3.88;;;3.58;;
19747;SDS011;10032;51.386;12.516;2023-07-20T03:35:54;4.72;;;3.63;;
19747;SDS011;10032;51.386;12.516;2023-07-20T03:38:21;3.10;;;2.80;;
19747;SDS011;10032;51.386;12.516;2023-07-20T03:40:50;6.32;;;3.22;;
19747;SDS011;10032;51.386;12.516;2023-07-20T03:43:20;4.00;;;3.60;;
19747;SDS011;10032;51.386;12.516;2023-07-20T03:45:46;2.35;;;2.15;;
19747;SDS011;10032;51.386;12.516;2023-07-20T03:48:13;3.58;;;3.28;;
19747;SDS011;10032;51.386;12.516;2023-07-20T03:50:41;3.65;;;2.80;;
19747;SDS011;10032;51.386;12.516;2023-07-20T03:53:06;3.88;;;3.00;;
19747;SDS011;10032;51.386;12.516;2023-07-20T03:55:32;3.60;;;3.30;;
19747;SDS011;10032;51.386;12.516;2023-07-20T03:57:57;5.97;;;3.85;;
19747;SDS011;10032;51.386;12.516;2023-07-20T04:00:23;4.63;;;3.20;;
19747;SDS011;10032;51.386;12.516;2023-07-20T04:02:48;6.85;;;3.80;;
19747;SDS011;10032;51.386;12.516;2023-07-20T04:05:14;3.10;;;2.90;;
19747;SDS011;10032;51.386;12.516;2023-07-20T04:07:39;4.82;;;3.13;;
19747;SDS011;10032;51.386;12.516;2023-07-20T04:10:05;3.50;;;3.20;;
19747;SDS011;10032;51.386;12.516;2023-07-20T04:12:30;3.22;;;2.78;;
19747;SDS011;10032;51.386;12.516;2023-07-20T04:14:56;3.55;;;2.47;;
19747;SDS011;10032;51.386;12.516;2023-07-20T04:17:21;5.55;;;3.40;;
19747;SDS011;10032;51.386;12.516;2023-07-20T04:19:47;3.80;;;2.50;;
19747;SDS011;10032;51.386;12.516;2023-07-20T04:22:12;2.97;;;2.78;;
19747;SDS011;10032;51.386;12.516;2023-07-20T04:24:40;4.90;;;3.50;;
19747;SDS011;10032;51.386;12.516;2023-07-20T04:27:06;3.67;;;3.35;;
19747;SDS011;10032;51.386;12.516;2023-07-20T04:29:32;2.95;;;2.60;;
19747;SDS011;10032;51.386;12.516;2023-07-20T04:31:57;4.43;;;3.50;;
19747;SDS011;10032;51.386;12.516;2023-07-20T04:34:22;3.20;;;2.90;;
19747;SDS011;10032;51.386;12.516;2023-07-20T04:36:48;4.47;;;2.83;;
19747;SDS011;10032;51.386;12.516;2023-07-20T04:39:13;3.40;;;2.63;;
19747;SDS011;10032;51.386;12.516;2023-07-20T04:41:38;6.30;;;2.83;;
19747;SDS011;10032;51.386;12.516;2023-07-20T04:44:04;2.83;;;2.63;;
19747;SDS011;10032;51.386;12.516;2023-07-20T04:46:29;4.15;;;3.00;;
19747;SDS011;10032;51.386;12.516;2023-07-20T04:48:54;3.08;;;2.78;;
19747;SDS011;10032;51.386;12.516;2023-07-20T04:51:20;2.65;;;2.38;;
19747;SDS011;10032;51.386;12.516;2023-07-20T04:53:46;2.75;;;2.38;;
19747;SDS011;10032;51.386;12.516;2023-07-20T04:56:12;5.32;;;2.30;;
19747;SDS011;10032;51.386;12.516;2023-07-20T04:58:37;3.20;;;2.88;;
19747;SDS011;10032;51.386;12.516;2023-07-20T05:01:02;2.78;;;2.45;;
19747;SDS011;10032;51.386;12.516;2023-07-20T05:03:28;3.15;;;2.33;;
19747;SDS011;10032;51.386;12.516;2023-07-20T05:05:53;2.83;;;2.60;;
19747;SDS011;10032;51.386;12.516;2023-07-20T05:08:19;2.92;;;2.50;;
19747;SDS011;10032;51.386;12.516;2023-07-20T05:10:44;4.20;;;3.00;;
19747;SDS011;10032;51.386;12.516;2023-07-20T05:13:10;2.88;;;2.33;;
19747;SDS011;10032;51.386;12.516;2023-07-20T05:15:35;3.03;;;2.30;;
19747;SDS011;10032;51.386;12.516;2023-07-20T05:18:00;3.75;;;2.53;;
19747;SDS011;10032;51.386;12.516;2023-07-20T05:20:26;6.05;;;3.08;;
19747;SDS011;10032;51.386;12.516;2023-07-20T05:22:52;4.40;;;3.22;;
19747;SDS011;10032;51.386;12.516;2023-07-20T05:25:18;5.43;;;3.05;;
19747;SDS011;10032;51.386;12.516;2023-07-20T05:27:44;3.63;;;3.20;;
19747;SDS011;10032;51.386;12.516;2023-07-20T05:30:10;5.65;;;3.72;;
19747;SDS011;10032;51.386;12.516;2023-07-20T05:32:36;4.60;;;3.40;;
19747;SDS011;10032;51.386;12.516;2023-07-20T05:35:01;4.70;;;3.20;;
19747;SDS011;10032;51.386;12.516;2023-07-20T05:37:26;4.05;;;2.85;;
19747;SDS011;10032;51.386;12.516;2023-07-20T05:39:52;3.97;;;3.00;;
19747;SDS011;10032;51.386;12.516;2023-07-20T05:42:17;3.45;;;3.05;;
19747;SDS011;10032;51.386;12.516;2023-07-20T05:44:43;4.00;;;3.22;;
19747;SDS011;10032;51.386;12.516;2023-07-20T05:47:08;3.63;;;2.97;;
19747;SDS011;10032;51.386;12.516;2023-07-20T05:49:34;4.20;;;2.72;;
19747;SDS011;10032;51.386;12.516;2023-07-20T05:52:00;4.40;;;3.00;;
19747;SDS011;10032;51.386;12.516;2023-07-20T05:54:26;2.70;;;2.42;;
19747;SDS011;10032;51.386;12.516;2023-07-20T05:56:52;3.42;;;2.50;;
19747;SDS011;10032;51.386;12.516;2023-07-20T05:59:18;4.03;;;2.90;;
19747;SDS011;10032;51.386;12.516;2023-07-20T06:01:44;3.70;;;3.10;;
19747;SDS011;10032;51.386;12.516;2023-07-20T06:04:11;3.83;;;2.92;;
19747;SDS011;10032;51.386;12.516;2023-07-20T06:06:36;4.93;;;3.13;;
19747;SDS011;10032;51.386;12.516;2023-07-20T06:09:02;4.85;;;3.60;;
19747;SDS011;10032;51.386;12.516;2023-07-20T06:11:34;3.92;;;3.53;;
19747;SDS011;10032;51.386;12.516;2023-07-20T06:14:00;3.75;;;3.00;;
19747;SDS011;10032;51.386;12.516;2023-07-20T06:16:25;5.28;;;2.80;;
19747;SDS011;10032;51.386;12.516;2023-07-20T06:18:50;5.55;;;3.58;;
19747;SDS011;10032;51.386;12.516;2023-07-20T06:21:16;4.00;;;2.95;;
19747;SDS011;10032;51.386;12.516;2023-07-20T06:23:41;3.80;;;3.28;;
19747;SDS011;10032;51.386;12.516;2023-07-20T06:26:07;3.88;;;3.08;;
19747;SDS011;10032;51.386;12.516;2023-07-20T06:28:32;3.30;;;2.78;;
19747;SDS011;10032;51.386;12.516;2023-07-20T06:31:01;3.05;;;2.70;;
19747;SDS011;10032;51.386;12.516;2023-07-20T06:33:29;3.65;;;3.17;;
19747;SDS011;10032;51.386;12.516;2023-07-20T06:35:55;3.38;;;3.08;;
19747;SDS011;10032;51.386;12.516;2023-07-20T06:38:22;3.97;;;2.67;;
19747;SDS011;10032;51.386;12.516;2023-07-20T06:40:48;3.22;;;2.80;;
19747;SDS011;10032;51.386;12.516;2023-07-20T06:43:14;3.92;;;2.92;;
19747;SDS011;10032;51.386;12.516;2023-07-20T06:45:40;3.08;;;2.78;;
19747;SDS011;10032;51.386;12.516;2023-07-20T06:48:06;3.33;;;3.03;;
19747;SDS011;10032;51.386;12.516;2023-07-20T06:50:32;3.35;;;3.05;;
19747;SDS011;10032;51.386;12.516;2023-07-20T06:52:57;3.22;;;2.47;;
19747;SDS011;10032;51.386;12.516;2023-07-20T06:55:23;2.08;;;1.98;;
19747;SDS011;10032;51.386;12.516;2023-07-20T06:57:49;2.95;;;2.50;;
19747;SDS011;10032;51.386;12.516;2023-07-20T07:00:15;2.67;;;2.47;;
19747;SDS011;10032;51.386;12.516;2023-07-20T07:02:40;2.40;;;1.92;;
19747;SDS011;10032;51.386;12.516;2023-07-20T07:05:06;2.25;;;2.05;;
19747;SDS011;10032;51.386;12.516;2023-07-20T07:07:31;2.42;;;2.22;;
19747;SDS011;10032;51.386;12.516;2023-07-20T07:09:57;2.45;;;2.25;;
19747;SDS011;10032;51.386;12.516;2023-07-20T07:12:22;2.47;;;2.28;;
19747;SDS011;10032;51.386;12.516;2023-07-20T07:14:48;2.38;;;2.17;;
19747;SDS011;10032;51.386;12.516;2023-07-20T07:17:13;2.17;;;1.98;;
19747;SDS011;10032;51.386;12.516;2023-07-20T07:19:39;2.55;;;2.30;;
19747;SDS011;10032;51.386;12.516;2023-07-20T07:22:05;3.05;;;2.20;;
19747;SDS011;10032;51.386;12.516;2023-07-20T07:24:31;2.05;;;1.80;;
19747;SDS011;10032;51.386;12.516;2023-07-20T07:27:02;2.80;;;2.42;;
19747;SDS011;10032;51.386;12.516;2023-07-20T07:29:28;2.83;;;2.25;;
19747;SDS011;10032;51.386;12.516;2023-07-20T07:31:54;2.45;;;2.25;;
19747;SDS011;10032;51.386;12.516;2023-07-20T07:34:19;3.30;;;2.38;;
19747;SDS011;10032;51.386;12.516;2023-07-20T07:36:45;2.90;;;2.60;;
19747;SDS011;10032;51.386;12.516;2023-07-20T07:39:10;2.38;;;2.10;;
19747;SDS011;10032;51.386;12.516;2023-07-20T07:41:36;3.45;;;2.40;;
19747;SDS011;10032;51.386;12.516;2023-07-20T07:44:01;3.13;;;2.40;;
19747;SDS011;10032;51.386;12.516;2023-07-20T07:46:27;2.50;;;2.30;;
19747;SDS011;10032;51.386;12.516;2023-07-20T07:48:52;2.63;;;1.77;;
19747;SDS011;10032;51.386;12.516;2023-07-20T07:51:18;2.35;;;2.13;;
19747;SDS011;10032;51.386;12.516;2023-07-20T07:53:44;2.50;;;2.10;;
19747;SDS011;10032;51.386;12.516;2023-07-20T07:56:10;2.10;;;2.00;;
19747;SDS011;10032;51.386;12.516;2023-07-20T07:58:36;2.53;;;2.33;;
19747;SDS011;10032;51.386;12.516;2023-07-20T08:01:02;4.25;;;2.70;;
19747;SDS011;10032;51.386;12.516;2023-07-20T08:03:27;3.33;;;2.50;;
19747;SDS011;10032;51.386;12.516;2023-07-20T08:05:56;2.88;;;1.88;;
19747;SDS011;10032;51.386;12.516;2023-07-20T08:08:22;2.33;;;2.13;;
19747;SDS011;10032;51.386;12.516;2023-07-20T08:10:48;3.42;;;2.30;;
19747;SDS011;10032;51.386;12.516;2023-07-20T08:13:13;2.58;;;2.38;;
19747;SDS011;10032;51.386;12.516;2023-07-20T08:15:38;2.78;;;2.28;;
19747;SDS011;10032;51.386;12.516;2023-07-20T08:18:04;2.80;;;2.47;;
19747;SDS011;10032;51.386;12.516;2023-07-20T08:20:30;3.97;;;2.55;;
19747;SDS011;10032;51.386;12.516;2023-07-20T08:22:57;2.97;;;2.13;;
19747;SDS011;10032;51.386;12.516;2023-07-20T08:25:24;4.78;;;2.60;;
19747;SDS011;10032;51.386;12.516;2023-07-20T08:27:50;3.13;;;2.83;;
19747;SDS011;10032;51.386;12.516;2023-07-20T08:30:16;4.97;;;2.97;;
19747;SDS011;10032;51.386;12.516;2023-07-20T08:32:41;7.47;;;3.40;;
19747;SDS011;10032;51.386;12.516;2023-07-20T08:35:07;5.28;;;2.67;;
19747;SDS011;10032;51.386;12.516;2023-07-20T08:37:32;2.70;;;2.50;;
19747;SDS011;10032;51.386;12.516;2023-07-20T08:39:58;2.17;;;2.00;;
19747;SDS011;10032;51.386;12.516;2023-07-20T08:42:23;2.40;;;2.20;;
19747;SDS011;10032;51.386;12.516;2023-07-20T08:44:49;2.47;;;2.05;;
19747;SDS011;10032;51.386;12.516;2023-07-20T08:47:17;3.08;;;2.78;;
19747;SDS011;10032;51.386;12.516;2023-07-20T08:49:46;2.83;;;2.47;;
19747;SDS011;10032;51.386;12.516;2023-07-20T08:52:13;2.53;;;2.33;;
19747;SDS011;10032;51.386;12.516;2023-07-20T08:54:39;2.90;;;2.70;;
19747;SDS011;10032;51.386;12.516;2023-07-20T08:57:05;3.22;;;2.63;;
19747;SDS011;10032;51.386;12.516;2023-07-20T08:59:31;2.75;;;2.55;;
19747;SDS011;10032;51.386;12.516;2023-07-20T09:01:57;2.15;;;2.03;;
19747;SDS011;10032;51.386;12.516;2023-07-20T09:04:24;3.05;;;2.10;;
19747;SDS011;10032;51.386;12.516;2023-07-20T09:06:49;2.30;;;2.10;;
19747;SDS011;10032;51.386;12.516;2023-07-20T09:09:15;3.05;;;2.75;;
19747;SDS011;10032;51.386;12.516;2023-07-20T09:11:41;3.58;;;2.20;;
19747;SDS011;10032;51.386;12.516;2023-07-20T09:14:06;2.90;;;2.63;;
19747;SDS011;10032;51.386;12.516;2023-07-20T09:16:46;3.50;;;3.03;;
19747;SDS011;10032;51.386;12.516;2023-07-20T09:19:14;2.05;;;1.90;;
19747;SDS011;10032;51.386;12.516;2023-07-20T09:21:41;2.00;;;1.90;;
19747;SDS011;10032;51.386;12.516;2023-07-20T09:24:09;3.20;;;2.58;;
19747;SDS011;10032;51.386;12.516;2023-07-20T09:26:40;2.45;;;2.20;;
19747;SDS011;10032;51.386;12.516;2023-07-20T09:29:07;2.67;;;2.47;;
19747;SDS011;10032;51.386;12.516;2023-07-20T09:31:34;2.17;;;2.00;;
19747;SDS011;10032;51.386;12.516;2023-07-20T09:33:59;2.38;;;2.17;;
19747;SDS011;10032;51.386;12.516;2023-07-20T09:36:26;4.00;;;2.15;;
19747;SDS011;10032;51.386;12.516;2023-07-20T09:38:53;2.50;;;2.30;;
19747;SDS011;10032;51.386;12.516;2023-07-20T09:41:19;3.42;;;2.70;;
19747;SDS011;10032;51.386;12.516;2023-07-20T09:43:45;2.60;;;1.88;;
19747;SDS011;10032;51.386;12.516;2023-07-20T09:46:10;3.78;;;2.50;;
19747;SDS011;10032;51.386;12.516;2023-07-20T09:48:36;3.22;;;2.30;;
19747;SDS011;10032;51.386;12.516;2023-07-20T09:51:01;2.42;;;2.22;;
19747;SDS011;10032;51.386;12.516;2023-07-20T09:53:28;2.05;;;1.92;;
19747;SDS011;10032;51.386;12.516;2023-07-20T09:55:54;2.60;;;2.40;;
19747;SDS011;10032;51.386;12.516;2023-07-20T09:58:21;2.90;;;2.70;;
19747;SDS011;10032;51.386;12.516;2023-07-20T10:00:47;3.05;;;2.45;;
19747;SDS011;10032;51.386;12.516;2023-07-20T10:03:18;3.88;;;3.03;;
19747;SDS011;10032;51.386;12.516;2023-07-20T10:05:46;3.40;;;3.15;;
19747;SDS011;10032;51.386;12.516;2023-07-20T10:08:15;3.40;;;3.20;;
19747;SDS011;10032;51.386;12.516;2023-07-20T10:10:43;3.95;;;3.55;;
19747;SDS011;10032;51.386;12.516;2023-07-20T10:13:10;3.40;;;3.10;;
19747;SDS011;10032;51.386;12.516;2023-07-20T10:15:43;3.55;;;3.25;;
19747;SDS011;10032;51.386;12.516;2023-07-20T10:20:50;4.18;;;3.03;;
19747;SDS011;10032;51.386;12.516;2023-07-20T10:23:17;3.72;;;3.40;;
19747;SDS011;10032;51.386;12.516;2023-07-20T10:25:42;3.05;;;2.78;;
19747;SDS011;10032;51.386;12.516;2023-07-20T10:28:10;3.00;;;2.80;;
19747;SDS011;10032;51.386;12.516;2023-07-20T10:30:36;3.60;;;3.30;;
19747;SDS011;10032;51.386;12.516;2023-07-20T10:33:03;3.58;;;3.13;;
19747;SDS011;10032;51.386;12.516;2023-07-20T10:35:29;4.90;;;2.92;;
19747;SDS011;10032;51.386;12.516;2023-07-20T10:38:02;2.83;;;2.63;;
19747;SDS011;10032;51.386;12.516;2023-07-20T10:40:29;2.53;;;2.33;;
19747;SDS011;10032;51.386;12.516;2023-07-20T10:43:08;2.60;;;2.40;;
19747;SDS011;10032;51.386;12.516;2023-07-20T10:45:35;2.15;;;2.03;;
19747;SDS011;10032;51.386;12.516;2023-07-20T10:48:25;2.38;;;2.10;;
19747;SDS011;10032;51.386;12.516;2023-07-20T10:53:34;2.75;;;2.55;;
19747;SDS011;10032;51.386;12.516;2023-07-20T10:56:33;4.75;;;2.40;;
19747;SDS011;10032;51.386;12.516;2023-07-20T10:58:57;2.00;;;1.90;;
19747;SDS011;10032;51.386;12.516;2023-07-20T11:01:27;2.40;;;2.20;;
19747;SDS011;10032;51.386;12.516;2023-07-20T11:03:56;2.90;;;2.22;;
19747;SDS011;10032;51.386;12.516;2023-07-20T11:08:48;2.42;;;2.25;;
19747;SDS011;10032;51.386;12.516;2023-07-20T11:14:02;3.03;;;2.72;;
19747;SDS011;10032;51.386;12.516;2023-07-20T11:16:40;3.15;;;2.88;;
19747;SDS011;10032;51.386;12.516;2023-07-20T11:19:23;2.58;;;2.22;;
19747;SDS011;10032;51.386;12.516;2023-07-20T11:21:50;3.30;;;2.55;;
19747;SDS011;10032;51.386;12.516;2023-07-20T11:24:17;2.58;;;2.38;;
19747;SDS011;10032;51.386;12.516;2023-07-20T11:26:46;2.08;;;1.98;;
19747;SDS011;10032;51.386;12.516;2023-07-20T11:29:13;3.00;;;2.70;;
19747;SDS011;10032;51.386;12.516;2023-07-20T11:31:41;2.65;;;2.45;;
19747;SDS011;10032;51.386;12.516;2023-07-20T11:34:15;2.17;;;2.08;;
19747;SDS011;10032;51.386;12.516;2023-07-20T11:36:46;8.80;;;2.63;;
19747;SDS011;10032;51.386;12.516;2023-07-20T11:39:13;2.40;;;2.03;;
19747;SDS011;10032;51.386;12.516;2023-07-20T11:41:49;2.55;;;1.95;;
19747;SDS011;10032;51.386;12.516;2023-07-20T11:44:17;2.00;;;1.80;;
19747;SDS011;10032;51.386;12.516;2023-07-20T11:46:43;2.00;;;1.90;;
19747;SDS011;10032;51.386;12.516;2023-07-20T11:49:09;2.10;;;1.55;;
19747;SDS011;10032;51.386;12.516;2023-07-20T11:51:35;1.88;;;1.77;;
19747;SDS011;10032;51.386;12.516;2023-07-20T11:54:01;1.88;;;1.77;;
19747;SDS011;10032;51.386;12.516;2023-07-20T11:56:27;3.65;;;1.75;;
19747;SDS011;10032;51.386;12.516;2023-07-20T11:59:00;2.30;;;2.10;;
19747;SDS011;10032;51.386;12.516;2023-07-20T12:01:27;1.35;;;1.25;;
19747;SDS011;10032;51.386;12.516;2023-07-20T12:04:00;2.30;;;2.10;;
19747;SDS011;10032;51.386;12.516;2023-07-20T12:06:28;2.00;;;1.90;;
19747;SDS011;10032;51.386;12.516;2023-07-20T12:08:54;1.67;;;1.58;;
19747;SDS011;10032;51.386;12.516;2023-07-20T12:11:38;1.83;;;1.73;;
19747;SDS011;10032;51.386;12.516;2023-07-20T12:14:04;1.95;;;1.85;;
19747;SDS011;10032;51.386;12.516;2023-07-20T12:16:32;3.90;;;1.90;;
19747;SDS011;10032;51.386;12.516;2023-07-20T12:19:01;2.35;;;1.73;;
19747;SDS011;10032;51.386;12.516;2023-07-20T12:21:28;1.67;;;1.58;;
19747;SDS011;10032;51.386;12.516;2023-07-20T12:23:55;2.65;;;1.60;;
19747;SDS011;10032;51.386;12.516;2023-07-20T12:26:22;3.60;;;1.98;;
19747;SDS011;10032;51.386;12.516;2023-07-20T12:28:49;5.47;;;1.95;;
19747;SDS011;10032;51.386;12.516;2023-07-20T12:31:14;3.83;;;1.83;;
19747;SDS011;10032;51.386;12.516;2023-07-20T12:33:40;1.90;;;1.80;;
19747;SDS011;10032;51.386;12.516;2023-07-20T12:36:06;2.08;;;1.98;;
19747;SDS011;10032;51.386;12.516;2023-07-20T12:38:33;1.52;;;1.42;;
19747;SDS011;10032;51.386;12.516;2023-07-20T12:40:59;1.50;;;1.40;;
19747;SDS011;10032;51.386;12.516;2023-07-20T12:43:26;1.83;;;1.40;;
19747;SDS011;10032;51.386;12.516;2023-07-20T12:45:51;1.92;;;1.60;;
19747;SDS011;10032;51.386;12.516;2023-07-20T12:48:17;1.05;;;1.05;;
19747;SDS011;10032;51.386;12.516;2023-07-20T12:50:43;1.80;;;0.98;;
19747;SDS011;10032;51.386;12.516;2023-07-20T12:53:08;2.60;;;1.20;;
19747;SDS011;10032;51.386;12.516;2023-07-20T12:55:33;1.35;;;1.25;;
19747;SDS011;10032;51.386;12.516;2023-07-20T12:57:59;1.55;;;1.00;;
19747;SDS011;10032;51.386;12.516;2023-07-20T13:00:24;1.45;;;1.42;;
19747;SDS011;10032;51.386;12.516;2023-07-20T13:02:50;1.98;;;1.05;;
19747;SDS011;10032;51.386;12.516;2023-07-20T13:05:16;1.15;;;1.05;;
19747;SDS011;10032;51.386;12.516;2023-07-20T13:07:41;1.27;;;0.60;;
19747;SDS011;10032;51.386;12.516;2023-07-20T13:10:07;0.80;;;0.80;;
19747;SDS011;10032;51.386;12.516;2023-07-20T13:12:34;0.57;;;0.57;;
19747;SDS011;10032;51.386;12.516;2023-07-20T13:15:01;1.92;;;0.70;;
19747;SDS011;10032;51.386;12.516;2023-07-20T13:17:30;0.70;;;0.70;;
19747;SDS011;10032;51.386;12.516;2023-07-20T13:19:56;0.88;;;0.88;;
19747;SDS011;10032;51.386;12.516;2023-07-20T13:22:22;0.80;;;0.80;;
19747;SDS011;10032;51.386;12.516;2023-07-20T13:24:48;1.33;;;0.88;;
19747;SDS011;10032;51.386;12.516;2023-07-20T13:27:17;1.48;;;0.82;;
19747;SDS011;10032;51.386;12.516;2023-07-20T13:29:43;0.98;;;0.93;;
19747;SDS011;10032;51.386;12.516;2023-07-20T13:32:09;0.93;;;0.90;;
19747;SDS011;10032;51.386;12.516;2023-07-20T13:34:34;0.68;;;0.68;;
19747;SDS011;10032;51.386;12.516;2023-07-20T13:37:00;1.30;;;0.73;;
19747;SDS011;10032;51.386;12.516;2023-07-20T13:39:26;0.52;;;0.52;;
19747;SDS011;10032;51.386;12.516;2023-07-20T13:41:53;0.60;;;0.60;;
19747;SDS011;10032;51.386;12.516;2023-07-20T13:44:19;0.88;;;0.88;;
19747;SDS011;10032;51.386;12.516;2023-07-20T13:46:45;1.48;;;1.38;;
19747;SDS011;10032;51.386;12.516;2023-07-20T13:49:11;1.63;;;1.52;;
19747;SDS011;10032;51.386;12.516;2023-07-20T13:51:37;1.17;;;1.17;;
19747;SDS011;10032;51.386;12.516;2023-07-20T13:54:02;1.60;;;1.50;;
19747;SDS011;10032;51.386;12.516;2023-07-20T13:56:28;2.05;;;1.90;;
19747;SDS011;10032;51.386;12.516;2023-07-20T13:58:53;1.98;;;1.70;;
19747;SDS011;10032;51.386;12.516;2023-07-20T14:01:19;1.70;;;1.60;;
19747;SDS011;10032;51.386;12.516;2023-07-20T14:03:45;1.80;;;1.70;;
19747;SDS011;10032;51.386;12.516;2023-07-20T14:06:10;1.88;;;1.77;;
19747;SDS011;10032;51.386;12.516;2023-07-20T14:08:38;1.50;;;1.40;;
19747;SDS011;10032;51.386;12.516;2023-07-20T14:11:03;1.60;;;1.50;;
19747;SDS011;10032;51.386;12.516;2023-07-20T14:13:29;2.00;;;1.90;;
19747;SDS011;10032;51.386;12.516;2023-07-20T14:15:54;1.90;;;1.80;;
19747;SDS011;10032;51.386;12.516;2023-07-20T14:18:20;3.38;;;1.92;;
19747;SDS011;10032;51.386;12.516;2023-07-20T14:20:45;1.52;;;1.42;;
19747;SDS011;10032;51.386;12.516;2023-07-20T14:23:10;1.48;;;1.38;;
19747;SDS011;10032;51.386;12.516;2023-07-20T14:25:36;1.23;;;1.13;;
19747;SDS011;10032;51.386;12.516;2023-07-20T14:28:01;1.27;;;1.17;;
19747;SDS011;10032;51.386;12.516;2023-07-20T14:30:27;1.55;;;1.45;;
19747;SDS011;10032;51.386;12.516;2023-07-20T14:32:52;1.52;;;1.42;;
19747;SDS011;10032;51.386;12.516;2023-07-20T14:35:18;1.40;;;1.30;;
19747;SDS011;10032;51.386;12.516;2023-07-20T14:37:43;1.52;;;1.42;;
19747;SDS011;10032;51.386;12.516;2023-07-20T14:40:12;1.20;;;1.10;;
19747;SDS011;10032;51.386;12.516;2023-07-20T14:42:38;1.65;;;1.55;;
19747;SDS011;10032;51.386;12.516;2023-07-20T14:45:04;2.33;;;1.30;;
19747;SDS011;10032;51.386;12.516;2023-07-20T14:47:30;1.42;;;1.33;;